sensor_id;sensor_type;location;lat;lon;timestamp;pressure;altitude;pressure_sealevel;temperature;humidity
6425;BME280;12193;42.642;23.384;2023-07-13T00:01:35;94690.56;;;22.44;66.73
6425;BME280;12193;42.642;23.384;2023-07-13T00:04:05;94697.69;;;22.58;66.19
6425;BME280;12193;42.642;23.384;2023-07-13T00:06:37;94698.22;;;22.60;65.75
6425;BME280;12193;42.642;23.384;2023-07-13T03:08:32;94684.41;;;20.11;91.98
6425;BME280;12193;42.642;23.384;2023-07-13T03:11:04;94688.81;;;20.01;92.62
6425;BME280;12193;42.642;23.384;2023-07-13T03:13:34;94688.53;;;19.97;93.07
6425;BME280;12193;42.642;23.384;2023-07-13T03:16:04;94691.50;;;19.75;94.86
6425;BME280;12193;42.642;23.384;2023-07-13T03:18:35;94685.63;;;19.99;93.63
6425;BME280;12193;42.642;23.384;2023-07-13T03:21:05;94683.25;;;19.97;93.91
6425;BME280;12193;42.642;23.384;2023-07-13T03:23:37;94702.75;;;19.96;93.48
6425;BME280;12193;42.642;23.384;2023-07-13T03:26:10;94689.91;;;19.74;95.38
6425;BME280;12193;42.642;23.384;2023-07-13T03:28:40;94698.31;;;19.71;96.01
6425;BME280;12193;42.642;23.384;2023-07-13T03:31:11;94702.22;;;19.63;96.51
6425;BME280;12193;42.642;23.384;2023-07-13T03:33:41;94685.13;;;19.71;96.08
6425;BME280;12193;42.642;23.384;2023-07-13T03:36:13;94696.59;;;19.86;95.56
6425;BME280;12193;42.642;23.384;2023-07-13T03:38:48;94700.28;;;19.90;94.73
6425;BME280;12193;42.642;23.384;2023-07-13T03:41:18;94705.16;;;19.98;94.85
6425;BME280;12193;42.642;23.384;2023-07-13T03:43:48;94705.56;;;19.90;95.26
6425;BME280;12193;42.642;23.384;2023-07-13T03:46:19;94703.19;;;19.88;95.87
6425;BME280;12193;42.642;23.384;2023-07-13T03:48:48;94688.75;;;19.96;95.32
6425;BME280;12193;42.642;23.384;2023-07-13T03:51:18;94695.56;;;19.92;96.31
6425;BME280;12193;42.642;23.384;2023-07-13T03:53:50;94683.25;;;19.97;96.02
6425;BME280;12193;42.642;23.384;2023-07-13T03:56:19;94688.16;;;19.89;97.10
6425;BME280;12193;42.642;23.384;2023-07-13T03:58:50;94694.56;;;19.67;98.63
6425;BME280;12193;42.642;23.384;2023-07-13T04:01:21;94695.19;;;19.74;98.31
6425;BME280;12193;42.642;23.384;2023-07-13T04:03:51;94683.28;;;20.02;96.80
6425;BME280;12193;42.642;23.384;2023-07-13T04:06:23;94692.53;;;20.05;95.68
6425;BME280;12193;42.642;23.384;2023-07-13T04:08:56;94694.34;;;20.41;94.02
6425;BME280;12193;42.642;23.384;2023-07-13T04:11:29;94701.28;;;20.57;92.37
6425;BME280;12193;42.642;23.384;2023-07-13T04:14:00;94689.56;;;20.84;91.54
6425;BME280;12193;42.642;23.384;2023-07-13T04:16:29;94697.97;;;20.76;92.57
6425;BME280;12193;42.642;23.384;2023-07-13T04:18:59;94701.34;;;20.72;92.18
6425;BME280;12193;42.642;23.384;2023-07-13T04:21:29;94689.75;;;20.73;92.02
6425;BME280;12193;42.642;23.384;2023-07-13T04:24:01;94700.31;;;20.73;92.18
6425;BME280;12193;42.642;23.384;2023-07-13T04:26:30;94705.69;;;20.83;92.27
6425;BME280;12193;42.642;23.384;2023-07-13T04:29:02;94717.13;;;21.03;90.54
6425;BME280;12193;42.642;23.384;2023-07-13T04:31:33;94709.53;;;21.31;89.59
6425;BME280;12193;42.642;23.384;2023-07-13T04:34:02;94714.00;;;21.21;90.51
6425;BME280;12193;42.642;23.384;2023-07-13T04:36:32;94717.47;;;21.26;90.30
6425;BME280;12193;42.642;23.384;2023-07-13T04:39:06;94716.13;;;21.24;91.80
6425;BME280;12193;42.642;23.384;2023-07-13T04:41:35;94713.34;;;20.84;93.51
6425;BME280;12193;42.642;23.384;2023-07-13T04:44:05;94714.97;;;20.90;93.54
6425;BME280;12193;42.642;23.384;2023-07-13T04:46:34;94728.53;;;21.18;92.65
6425;BME280;12193;42.642;23.384;2023-07-13T04:49:04;94724.06;;;21.24;91.84
6425;BME280;12193;42.642;23.384;2023-07-13T04:51:33;94725.63;;;21.20;91.72
6425;BME280;12193;42.642;23.384;2023-07-13T04:54:03;94727.19;;;21.06;92.11
6425;BME280;12193;42.642;23.384;2023-07-13T04:56:36;94734.41;;;21.25;91.38
6425;BME280;12193;42.642;23.384;2023-07-13T04:59:06;94731.81;;;21.45;90.99
6425;BME280;12193;42.642;23.384;2023-07-13T05:01:35;94730.28;;;21.94;88.91
6425;BME280;12193;42.642;23.384;2023-07-13T05:04:05;94740.34;;;22.17;87.75
6425;BME280;12193;42.642;23.384;2023-07-13T05:06:34;94727.66;;;22.34;86.69
6425;BME280;12193;42.642;23.384;2023-07-13T05:09:03;94732.41;;;22.47;85.65
6425;BME280;12193;42.642;23.384;2023-07-13T05:11:36;94740.66;;;22.35;85.46
6425;BME280;12193;42.642;23.384;2023-07-13T05:14:05;94741.19;;;22.37;85.34
6425;BME280;12193;42.642;23.384;2023-07-13T05:16:36;94742.19;;;22.56;85.00
6425;BME280;12193;42.642;23.384;2023-07-13T05:19:05;94756.09;;;23.21;82.44
6425;BME280;12193;42.642;23.384;2023-07-13T05:21:34;94759.56;;;23.65;79.21
6425;BME280;12193;42.642;23.384;2023-07-13T05:24:04;94756.31;;;23.83;79.31
6425;BME280;12193;42.642;23.384;2023-07-13T05:26:36;94752.25;;;23.91;78.97
6425;BME280;12193;42.642;23.384;2023-07-13T05:29:05;94753.09;;;23.86;80.47
6425;BME280;12193;42.642;23.384;2023-07-13T05:31:34;94751.78;;;24.17;78.78
6425;BME280;12193;42.642;23.384;2023-07-13T05:34:04;94747.34;;;24.41;75.74
6425;BME280;12193;42.642;23.384;2023-07-13T05:36:33;94755.31;;;24.41;76.48
6425;BME280;12193;42.642;23.384;2023-07-13T05:39:03;94749.59;;;25.09;70.35
6425;BME280;12193;42.642;23.384;2023-07-13T05:41:33;94755.47;;;26.45;63.81
6425;BME280;12193;42.642;23.384;2023-07-13T05:44:04;94750.88;;;26.32;64.37
6425;BME280;12193;42.642;23.384;2023-07-13T05:46:34;94757.28;;;26.13;65.01
6425;BME280;12193;42.642;23.384;2023-07-13T05:49:03;94756.31;;;26.40;64.27
6425;BME280;12193;42.642;23.384;2023-07-13T05:51:33;94757.66;;;25.69;66.19
6425;BME280;12193;42.642;23.384;2023-07-13T05:54:02;94752.91;;;26.53;63.05
6425;BME280;12193;42.642;23.384;2023-07-13T05:56:31;94755.13;;;27.99;56.45
6425;BME280;12193;42.642;23.384;2023-07-13T05:59:01;94753.59;;;28.42;54.46
6425;BME280;12193;42.642;23.384;2023-07-13T06:01:33;94753.13;;;29.78;49.17
6425;BME280;12193;42.642;23.384;2023-07-13T06:04:02;94747.91;;;29.26;50.44
6425;BME280;12193;42.642;23.384;2023-07-13T06:06:32;94748.94;;;28.78;52.26
6425;BME280;12193;42.642;23.384;2023-07-13T06:09:02;94746.22;;;29.30;51.03
6425;BME280;12193;42.642;23.384;2023-07-13T06:11:31;94742.59;;;30.07;49.26
6425;BME280;12193;42.642;23.384;2023-07-13T06:14:01;94737.06;;;30.21;49.00
6425;BME280;12193;42.642;23.384;2023-07-13T06:16:35;94751.22;;;29.79;50.54
6425;BME280;12193;42.642;23.384;2023-07-13T06:19:04;94741.81;;;30.07;49.93
6425;BME280;12193;42.642;23.384;2023-07-13T06:21:34;94745.03;;;30.97;47.18
6425;BME280;12193;42.642;23.384;2023-07-13T06:24:04;94750.03;;;30.61;47.52
6425;BME280;12193;42.642;23.384;2023-07-13T06:26:33;94744.34;;;30.54;46.00
6425;BME280;12193;42.642;23.384;2023-07-13T06:29:02;94749.66;;;30.79;46.71
6425;BME280;12193;42.642;23.384;2023-07-13T06:31:34;94744.50;;;30.15;48.49
6425;BME280;12193;42.642;23.384;2023-07-13T06:34:03;94739.13;;;30.24;47.97
6425;BME280;12193;42.642;23.384;2023-07-13T06:36:33;94744.28;;;29.86;48.70
6425;BME280;12193;42.642;23.384;2023-07-13T06:39:02;94746.16;;;29.61;49.13
6425;BME280;12193;42.642;23.384;2023-07-13T06:41:32;94738.94;;;30.71;47.32
6425;BME280;12193;42.642;23.384;2023-07-13T06:44:01;94740.03;;;31.24;45.29
6425;BME280;12193;42.642;23.384;2023-07-13T06:46:30;94742.66;;;31.41;44.07
6425;BME280;12193;42.642;23.384;2023-07-13T06:49:02;94750.19;;;31.56;44.87
6425;BME280;12193;42.642;23.384;2023-07-13T06:51:31;94742.59;;;30.50;46.19
6425;BME280;12193;42.642;23.384;2023-07-13T06:54:01;94739.66;;;30.97;45.37
6425;BME280;12193;42.642;23.384;2023-07-13T06:56:30;94741.75;;;31.37;46.38
6425;BME280;12193;42.642;23.384;2023-07-13T06:59:00;94739.97;;;30.95;47.60
6425;BME280;12193;42.642;23.384;2023-07-13T07:01:29;94742.06;;;30.81;46.58
6425;BME280;12193;42.642;23.384;2023-07-13T07:03:58;94738.72;;;31.39;45.36
6425;BME280;12193;42.642;23.384;2023-07-13T07:06:30;94737.19;;;31.29;44.33
6425;BME280;12193;42.642;23.384;2023-07-13T07:08:59;94740.03;;;31.24;45.07
6425;BME280;12193;42.642;23.384;2023-07-13T07:11:29;94743.56;;;31.83;43.88
6425;BME280;12193;42.642;23.384;2023-07-13T07:13:58;94747.56;;;31.39;43.00
6425;BME280;12193;42.642;23.384;2023-07-13T07:16:28;94739.00;;;31.08;43.37
6425;BME280;12193;42.642;23.384;2023-07-13T07:18:57;94744.63;;;31.61;44.29
6425;BME280;12193;42.642;23.384;2023-07-13T07:21:26;94744.41;;;31.95;44.34
6425;BME280;12193;42.642;23.384;2023-07-13T07:23:58;94741.38;;;32.58;43.75
6425;BME280;12193;42.642;23.384;2023-07-13T07:26:29;94737.66;;;32.83;42.78
6425;BME280;12193;42.642;23.384;2023-07-13T07:28:59;94732.34;;;32.74;42.06
6425;BME280;12193;42.642;23.384;2023-07-13T07:31:28;94741.13;;;32.51;42.78
6425;BME280;12193;42.642;23.384;2023-07-13T07:33:57;94732.28;;;31.31;43.25
6425;BME280;12193;42.642;23.384;2023-07-13T07:36:27;94745.38;;;31.70;42.84
6425;BME280;12193;42.642;23.384;2023-07-13T07:38:59;94738.75;;;31.88;41.18
6425;BME280;12193;42.642;23.384;2023-07-13T07:41:28;94731.19;;;32.10;40.91
6425;BME280;12193;42.642;23.384;2023-07-13T07:43:57;94722.34;;;32.63;39.20
6425;BME280;12193;42.642;23.384;2023-07-13T07:46:27;94726.22;;;31.72;40.12
6425;BME280;12193;42.642;23.384;2023-07-13T07:48:56;94725.09;;;31.44;41.90
6425;BME280;12193;42.642;23.384;2023-07-13T07:51:25;94724.00;;;31.07;42.00
6425;BME280;12193;42.642;23.384;2023-07-13T07:53:55;94718.72;;;32.59;39.14
6425;BME280;12193;42.642;23.384;2023-07-13T07:56:27;94718.22;;;32.45;40.11
6425;BME280;12193;42.642;23.384;2023-07-13T07:58:56;94712.28;;;33.64;36.61
6425;BME280;12193;42.642;23.384;2023-07-13T08:01:26;94713.31;;;34.50;35.31
6425;BME280;12193;42.642;23.384;2023-07-13T08:03:55;94718.31;;;33.85;37.40
6425;BME280;12193;42.642;23.384;2023-07-13T08:06:25;94709.94;;;33.62;38.01
6425;BME280;12193;42.642;23.384;2023-07-13T08:08:55;94706.31;;;32.13;41.91
6425;BME280;12193;42.642;23.384;2023-07-13T08:11:27;94701.28;;;31.63;44.29
6425;BME280;12193;42.642;23.384;2023-07-13T08:13:56;94689.16;;;32.83;40.61
6425;BME280;12193;42.642;23.384;2023-07-13T08:16:26;94690.22;;;33.62;39.43
6425;BME280;12193;42.642;23.384;2023-07-13T08:18:55;94687.88;;;33.24;42.34
6425;BME280;12193;42.642;23.384;2023-07-13T08:21:25;94682.78;;;32.99;41.60
6425;BME280;12193;42.642;23.384;2023-07-13T08:23:55;94683.03;;;33.06;40.18
6425;BME280;12193;42.642;23.384;2023-07-13T08:26:27;94682.47;;;32.24;41.96
6425;BME280;12193;42.642;23.384;2023-07-13T08:28:57;94683.75;;;32.71;39.92
6425;BME280;12193;42.642;23.384;2023-07-13T08:31:26;94672.63;;;33.40;38.95
6425;BME280;12193;42.642;23.384;2023-07-13T08:33:55;94680.94;;;33.99;37.63
6425;BME280;12193;42.642;23.384;2023-07-13T08:36:25;94677.25;;;34.58;36.04
6425;BME280;12193;42.642;23.384;2023-07-13T08:38:56;94673.16;;;33.34;38.51
6425;BME280;12193;42.642;23.384;2023-07-13T08:41:28;94673.31;;;34.83;37.09
6425;BME280;12193;42.642;23.384;2023-07-13T08:43:58;94671.84;;;34.03;37.95
6425;BME280;12193;42.642;23.384;2023-07-13T08:46:34;94672.34;;;32.86;39.57
6425;BME280;12193;42.642;23.384;2023-07-13T08:49:07;94674.50;;;33.40;38.88
6425;BME280;12193;42.642;23.384;2023-07-13T08:51:42;94669.66;;;34.75;35.62
6425;BME280;12193;42.642;23.384;2023-07-13T08:54:21;94662.34;;;34.09;38.32
6425;BME280;12193;42.642;23.384;2023-07-13T08:56:53;94665.72;;;33.55;37.54
6425;BME280;12193;42.642;23.384;2023-07-13T08:59:26;94668.91;;;33.45;38.43
6425;BME280;12193;42.642;23.384;2023-07-13T09:02:21;94677.19;;;33.76;38.78
6425;BME280;12193;42.642;23.384;2023-07-13T09:04:55;94672.03;;;34.10;38.20
6425;BME280;12193;42.642;23.384;2023-07-13T09:07:34;94686.50;;;34.57;36.64
6425;BME280;12193;42.642;23.384;2023-07-13T09:10:14;94693.13;;;35.33;37.88
6425;BME280;12193;42.642;23.384;2023-07-13T09:13:02;94695.81;;;35.48;35.59
6425;BME280;12193;42.642;23.384;2023-07-13T09:15:38;94703.41;;;35.43;34.97
6425;BME280;12193;42.642;23.384;2023-07-13T09:18:11;94698.50;;;35.48;34.81
6425;BME280;12193;42.642;23.384;2023-07-13T09:20:47;94703.94;;;35.98;34.02
6425;BME280;12193;42.642;23.384;2023-07-13T09:23:20;94699.84;;;36.04;33.69
6425;BME280;12193;42.642;23.384;2023-07-13T09:25:53;94694.75;;;35.68;34.08
6425;BME280;12193;42.642;23.384;2023-07-13T09:28:28;94702.22;;;35.90;33.37
6425;BME280;12193;42.642;23.384;2023-07-13T09:31:03;94698.84;;;36.31;33.09
6425;BME280;12193;42.642;23.384;2023-07-13T09:33:33;94701.25;;;36.51;34.16
6425;BME280;12193;42.642;23.384;2023-07-13T09:36:17;94697.91;;;36.05;34.28
6425;BME280;12193;42.642;23.384;2023-07-13T09:38:48;94699.28;;;37.12;31.58
6425;BME280;12193;42.642;23.384;2023-07-13T09:41:23;94699.72;;;36.35;31.76
6425;BME280;12193;42.642;23.384;2023-07-13T09:44:13;94688.31;;;36.45;33.35
6425;BME280;12193;42.642;23.384;2023-07-13T09:46:45;94684.22;;;35.32;33.18
6425;BME280;12193;42.642;23.384;2023-07-13T09:49:15;94685.84;;;35.52;33.83
6425;BME280;12193;42.642;23.384;2023-07-13T09:51:44;94682.97;;;36.30;32.91
6425;BME280;12193;42.642;23.384;2023-07-13T09:54:23;94666.31;;;37.10;33.61
6425;BME280;12193;42.642;23.384;2023-07-13T09:56:56;94669.50;;;35.80;32.02
6425;BME280;12193;42.642;23.384;2023-07-13T09:59:33;94664.28;;;36.25;31.68
6425;BME280;12193;42.642;23.384;2023-07-13T10:02:22;94657.81;;;35.76;32.73
6425;BME280;12193;42.642;23.384;2023-07-13T10:04:55;94659.53;;;35.84;32.87
6425;BME280;12193;42.642;23.384;2023-07-13T10:07:25;94655.91;;;36.71;31.25
6425;BME280;12193;42.642;23.384;2023-07-13T10:09:56;94647.97;;;37.49;29.98
6425;BME280;12193;42.642;23.384;2023-07-13T10:12:28;94649.84;;;37.22;29.93
6425;BME280;12193;42.642;23.384;2023-07-13T10:15:01;94639.94;;;36.88;30.92
6425;BME280;12193;42.642;23.384;2023-07-13T10:17:32;94644.09;;;36.82;30.32
6425;BME280;12193;42.642;23.384;2023-07-13T10:20:05;94641.38;;;34.73;34.13
6425;BME280;12193;42.642;23.384;2023-07-13T10:22:44;94641.94;;;36.91;30.48
6425;BME280;12193;42.642;23.384;2023-07-13T10:25:16;94641.41;;;36.22;31.66
6425;BME280;12193;42.642;23.384;2023-07-13T10:27:46;94642.03;;;36.95;31.32
6425;BME280;12193;42.642;23.384;2023-07-13T10:30:22;94631.66;;;36.18;32.04
6425;BME280;12193;42.642;23.384;2023-07-13T10:32:57;94625.44;;;36.17;32.69
6425;BME280;12193;42.642;23.384;2023-07-13T10:35:29;94626.81;;;37.87;29.78
6425;BME280;12193;42.642;23.384;2023-07-13T10:38:02;94625.31;;;37.89;30.11
6425;BME280;12193;42.642;23.384;2023-07-13T10:40:35;94623.28;;;36.64;31.05
6425;BME280;12193;42.642;23.384;2023-07-13T10:43:13;94622.69;;;36.96;31.07
6425;BME280;12193;42.642;23.384;2023-07-13T10:45:49;94619.88;;;37.38;29.89
6425;BME280;12193;42.642;23.384;2023-07-13T10:48:21;94614.56;;;37.70;30.38
6425;BME280;12193;42.642;23.384;2023-07-13T10:50:52;94611.31;;;37.61;28.03
6425;BME280;12193;42.642;23.384;2023-07-13T10:53:28;94604.97;;;36.20;30.04
6425;BME280;12193;42.642;23.384;2023-07-13T10:56:00;94597.69;;;36.24;31.60
6425;BME280;12193;42.642;23.384;2023-07-13T10:58:34;94586.31;;;37.49;29.53
6425;BME280;12193;42.642;23.384;2023-07-13T11:01:08;94591.09;;;36.85;31.20
6425;BME280;12193;42.642;23.384;2023-07-13T11:03:47;94590.03;;;38.26;28.76
6425;BME280;12193;42.642;23.384;2023-07-13T11:06:34;94587.31;;;37.93;28.73
6425;BME280;12193;42.642;23.384;2023-07-13T11:09:25;94578.41;;;39.05;26.88
6425;BME280;12193;42.642;23.384;2023-07-13T11:11:59;94576.75;;;39.47;27.04
6425;BME280;12193;42.642;23.384;2023-07-13T11:14:31;94568.84;;;38.05;29.30
6425;BME280;12193;42.642;23.384;2023-07-13T11:17:36;94570.84;;;35.96;30.50
6425;BME280;12193;42.642;23.384;2023-07-13T11:20:32;94564.34;;;35.63;31.44
6425;BME280;12193;42.642;23.384;2023-07-13T11:23:19;94555.75;;;36.55;29.90
6425;BME280;12193;42.642;23.384;2023-07-13T11:25:48;94555.03;;;37.33;29.42
6425;BME280;12193;42.642;23.384;2023-07-13T11:28:22;94557.41;;;37.89;28.39
6425;BME280;12193;42.642;23.384;2023-07-13T11:31:14;94564.97;;;37.22;28.30
6425;BME280;12193;42.642;23.384;2023-07-13T11:33:53;94555.13;;;36.02;29.47
6425;BME280;12193;42.642;23.384;2023-07-13T11:36:21;94551.34;;;38.03;27.80
6425;BME280;12193;42.642;23.384;2023-07-13T11:38:59;94559.91;;;38.05;26.72
6425;BME280;12193;42.642;23.384;2023-07-13T11:41:31;94547.00;;;39.11;25.70
6425;BME280;12193;42.642;23.384;2023-07-13T11:44:09;94548.69;;;37.48;28.18
6425;BME280;12193;42.642;23.384;2023-07-13T11:46:45;94545.66;;;37.01;28.88
6425;BME280;12193;42.642;23.384;2023-07-13T11:49:22;94541.53;;;37.10;29.30
6425;BME280;12193;42.642;23.384;2023-07-13T11:51:53;94542.72;;;36.87;29.76
6425;BME280;12193;42.642;23.384;2023-07-13T11:54:25;94549.66;;;37.62;27.89
6425;BME280;12193;42.642;23.384;2023-07-13T11:56:57;94532.28;;;36.89;28.65
6425;BME280;12193;42.642;23.384;2023-07-13T11:59:29;94540.69;;;37.58;27.74
6425;BME280;12193;42.642;23.384;2023-07-13T12:01:59;94532.31;;;37.15;27.73
6425;BME280;12193;42.642;23.384;2023-07-13T12:04:34;94522.22;;;36.89;28.02
6425;BME280;12193;42.642;23.384;2023-07-13T12:07:07;94521.59;;;37.25;26.96
6425;BME280;12193;42.642;23.384;2023-07-13T12:09:37;94492.66;;;36.81;27.52
6425;BME280;12193;42.642;23.384;2023-07-13T12:12:08;94512.28;;;37.49;27.09
6425;BME280;12193;42.642;23.384;2023-07-13T12:14:39;94512.91;;;37.39;27.22
6425;BME280;12193;42.642;23.384;2023-07-13T12:17:13;94508.84;;;37.00;27.42
6425;BME280;12193;42.642;23.384;2023-07-13T12:19:47;94513.22;;;36.37;27.92
6425;BME280;12193;42.642;23.384;2023-07-13T12:22:18;94494.28;;;36.40;28.08
6425;BME280;12193;42.642;23.384;2023-07-13T12:24:49;94491.97;;;36.17;28.60
6425;BME280;12193;42.642;23.384;2023-07-13T12:27:22;94481.97;;;35.60;29.24
6425;BME280;12193;42.642;23.384;2023-07-13T12:29:56;94476.38;;;35.16;29.53
6425;BME280;12193;42.642;23.384;2023-07-13T12:32:27;94461.00;;;36.40;28.42
6425;BME280;12193;42.642;23.384;2023-07-13T12:35:16;94480.91;;;36.25;27.42
6425;BME280;12193;42.642;23.384;2023-07-13T12:37:46;94479.97;;;36.62;27.69
6425;BME280;12193;42.642;23.384;2023-07-13T12:40:17;94483.88;;;36.42;29.07
6425;BME280;12193;42.642;23.384;2023-07-13T12:42:49;94490.78;;;36.85;27.97
6425;BME280;12193;42.642;23.384;2023-07-13T12:45:25;94479.47;;;37.35;26.19
6425;BME280;12193;42.642;23.384;2023-07-13T12:47:56;94477.38;;;36.69;26.99
6425;BME280;12193;42.642;23.384;2023-07-13T12:50:38;94472.13;;;37.06;26.59
6425;BME280;12193;42.642;23.384;2023-07-13T12:53:28;94477.38;;;36.69;26.26
6425;BME280;12193;42.642;23.384;2023-07-13T12:56:01;94466.00;;;36.38;27.40
6425;BME280;12193;42.642;23.384;2023-07-13T12:58:35;94450.06;;;35.69;28.61
6425;BME280;12193;42.642;23.384;2023-07-13T13:01:07;94469.28;;;35.45;28.41
6425;BME280;12193;42.642;23.384;2023-07-13T13:03:44;94462.25;;;35.60;28.52
6425;BME280;12193;42.642;23.384;2023-07-13T13:06:25;94452.63;;;35.81;28.41
6425;BME280;12193;42.642;23.384;2023-07-13T13:08:56;94456.78;;;35.56;29.07
6425;BME280;12193;42.642;23.384;2023-07-13T13:11:27;94455.81;;;35.49;29.19
6425;BME280;12193;42.642;23.384;2023-07-13T13:13:56;94447.50;;;35.76;27.67
6425;BME280;12193;42.642;23.384;2023-07-13T13:16:30;94447.38;;;35.92;27.86
6425;BME280;12193;42.642;23.384;2023-07-13T13:19:11;94445.16;;;35.75;27.86
6425;BME280;12193;42.642;23.384;2023-07-13T13:21:45;94445.91;;;35.75;28.25
6425;BME280;12193;42.642;23.384;2023-07-13T13:24:17;94443.59;;;35.74;27.40
6425;BME280;12193;42.642;23.384;2023-07-13T13:26:47;94449.75;;;35.74;27.17
6425;BME280;12193;42.642;23.384;2023-07-13T13:29:19;94443.56;;;36.15;26.49
6425;BME280;12193;42.642;23.384;2023-07-13T13:31:50;94441.09;;;36.07;26.99
6425;BME280;12193;42.642;23.384;2023-07-13T13:34:23;94434.59;;;36.11;27.74
6425;BME280;12193;42.642;23.384;2023-07-13T13:36:55;94437.28;;;35.89;27.77
6425;BME280;12193;42.642;23.384;2023-07-13T13:39:28;94424.56;;;35.51;28.66
6425;BME280;12193;42.642;23.384;2023-07-13T13:41:58;94426.50;;;35.70;28.41
6425;BME280;12193;42.642;23.384;2023-07-13T13:44:28;94428.50;;;35.95;27.20
6425;BME280;12193;42.642;23.384;2023-07-13T13:46:57;94434.91;;;36.06;28.15
6425;BME280;12193;42.642;23.384;2023-07-13T13:49:28;94429.00;;;36.23;27.21
6425;BME280;12193;42.642;23.384;2023-07-13T13:52:00;94430.78;;;35.93;27.84
6425;BME280;12193;42.642;23.384;2023-07-13T13:54:29;94427.00;;;35.56;27.98
6425;BME280;12193;42.642;23.384;2023-07-13T13:56:58;94422.09;;;35.62;28.07
6425;BME280;12193;42.642;23.384;2023-07-13T13:59:27;94419.69;;;35.57;28.21
6425;BME280;12193;42.642;23.384;2023-07-13T14:01:59;94425.25;;;35.86;27.90
6425;BME280;12193;42.642;23.384;2023-07-13T14:04:28;94422.53;;;36.05;28.41
6425;BME280;12193;42.642;23.384;2023-07-13T14:07:00;94411.28;;;35.84;28.32
6425;BME280;12193;42.642;23.384;2023-07-13T14:09:29;94419.22;;;35.74;27.91
6425;BME280;12193;42.642;23.384;2023-07-13T14:11:59;94417.28;;;35.74;27.34
6425;BME280;12193;42.642;23.384;2023-07-13T14:14:29;94414.81;;;36.07;27.13
6425;BME280;12193;42.642;23.384;2023-07-13T14:16:59;94405.16;;;36.32;26.90
6425;BME280;12193;42.642;23.384;2023-07-13T14:19:30;94413.34;;;36.36;27.34
6425;BME280;12193;42.642;23.384;2023-07-13T14:22:02;94409.72;;;35.83;28.38
6425;BME280;12193;42.642;23.384;2023-07-13T14:24:31;94403.44;;;35.38;29.33
6425;BME280;12193;42.642;23.384;2023-07-13T14:27:00;94401.94;;;35.40;28.99
6425;BME280;12193;42.642;23.384;2023-07-13T14:29:29;94401.94;;;35.59;28.80
6425;BME280;12193;42.642;23.384;2023-07-13T14:31:59;94401.72;;;35.68;27.97
6425;BME280;12193;42.642;23.384;2023-07-13T14:34:31;94401.88;;;35.37;28.59
6425;BME280;12193;42.642;23.384;2023-07-13T14:37:03;94396.75;;;35.32;28.51
6425;BME280;12193;42.642;23.384;2023-07-13T14:39:33;94405.38;;;35.56;29.13
6425;BME280;12193;42.642;23.384;2023-07-13T14:42:03;94397.06;;;35.68;27.92
6425;BME280;12193;42.642;23.384;2023-07-13T14:44:33;94394.97;;;35.39;27.91
6425;BME280;12193;42.642;23.384;2023-07-13T14:47:04;94394.59;;;35.60;27.81
6425;BME280;12193;42.642;23.384;2023-07-13T14:49:36;94388.41;;;35.82;27.59
6425;BME280;12193;42.642;23.384;2023-07-13T14:52:13;94394.00;;;35.92;27.25
6425;BME280;12193;42.642;23.384;2023-07-13T14:54:44;94399.56;;;35.99;27.08
6425;BME280;12193;42.642;23.384;2023-07-13T14:57:15;94392.75;;;36.05;28.07
6425;BME280;12193;42.642;23.384;2023-07-13T14:59:45;94388.13;;;35.87;27.85
6425;BME280;12193;42.642;23.384;2023-07-13T15:02:16;94388.72;;;35.99;27.93
6425;BME280;12193;42.642;23.384;2023-07-13T15:04:47;94398.41;;;36.00;29.00
6425;BME280;12193;42.642;23.384;2023-07-13T15:07:19;94391.25;;;35.89;29.07
6425;BME280;12193;42.642;23.384;2023-07-13T15:09:49;94395.78;;;35.81;28.04
6425;BME280;12193;42.642;23.384;2023-07-13T15:12:19;94386.81;;;35.77;27.48
6425;BME280;12193;42.642;23.384;2023-07-13T15:14:48;94396.72;;;35.92;27.16
6425;BME280;12193;42.642;23.384;2023-07-13T15:17:24;94394.16;;;35.77;27.42
6425;BME280;12193;42.642;23.384;2023-07-13T15:19:55;94394.88;;;35.74;27.11
6425;BME280;12193;42.642;23.384;2023-07-13T15:22:28;94398.28;;;35.93;27.56
6425;BME280;12193;42.642;23.384;2023-07-13T15:24:58;94396.91;;;35.80;27.89
6425;BME280;12193;42.642;23.384;2023-07-13T15:27:27;94393.97;;;35.66;29.69
6425;BME280;12193;42.642;23.384;2023-07-13T15:29:56;94394.97;;;35.39;29.24
6425;BME280;12193;42.642;23.384;2023-07-13T15:32:25;94395.41;;;35.23;29.54
6425;BME280;12193;42.642;23.384;2023-07-13T15:34:55;94388.06;;;35.04;30.01
6425;BME280;12193;42.642;23.384;2023-07-13T15:37:24;94387.50;;;34.95;30.10
6425;BME280;12193;42.642;23.384;2023-07-13T15:39:56;94388.69;;;34.98;29.38
6425;BME280;12193;42.642;23.384;2023-07-13T15:42:25;94389.25;;;34.88;30.57
6425;BME280;12193;42.642;23.384;2023-07-13T15:44:56;94385.56;;;34.77;30.63
6425;BME280;12193;42.642;23.384;2023-07-13T15:47:27;94388.13;;;34.89;30.62
6425;BME280;12193;42.642;23.384;2023-07-13T15:49:57;94388.28;;;34.96;30.58
6425;BME280;12193;42.642;23.384;2023-07-13T15:52:27;94395.19;;;34.93;30.94
6425;BME280;12193;42.642;23.384;2023-07-13T15:55:01;94399.56;;;34.82;31.66
6425;BME280;12193;42.642;23.384;2023-07-13T15:57:30;94399.13;;;34.80;30.26
6425;BME280;12193;42.642;23.384;2023-07-13T16:00:00;94400.38;;;34.83;30.44
6425;BME280;12193;42.642;23.384;2023-07-13T16:02:32;94398.19;;;34.73;30.71
6425;BME280;12193;42.642;23.384;2023-07-13T16:05:01;94397.50;;;34.76;30.19
6425;BME280;12193;42.642;23.384;2023-07-13T16:07:30;94399.06;;;34.77;29.40
6425;BME280;12193;42.642;23.384;2023-07-13T16:10:02;94392.75;;;34.88;29.18
6425;BME280;12193;42.642;23.384;2023-07-13T16:12:33;94390.97;;;34.77;29.23
6425;BME280;12193;42.642;23.384;2023-07-13T16:15:04;94392.56;;;34.62;29.42
6425;BME280;12193;42.642;23.384;2023-07-13T16:17:34;94390.09;;;34.57;28.99
6425;BME280;12193;42.642;23.384;2023-07-13T16:20:04;94384.63;;;34.54;29.39
6425;BME280;12193;42.642;23.384;2023-07-13T16:22:37;94393.09;;;34.52;29.55
6425;BME280;12193;42.642;23.384;2023-07-13T16:25:17;94390.16;;;34.42;30.13